createdAt,value
2023-01-13T00:01:57.531Z,100000.96
2023-01-13T00:04:27.521Z,100004.13
2023-01-13T00:06:57.367Z,100000.79
2023-01-13T00:09:27.165Z,100004.47
2023-01-13T00:11:56.345Z,100006.63
2023-01-13T00:14:26.339Z,100008.91
2023-01-13T00:16:53.504Z,100008.38
2023-01-13T00:19:20.862Z,100008.52
2023-01-13T00:21:49.138Z,100012.38
2023-01-13T00:24:17.642Z,100009.27
2023-01-13T00:26:46.128Z,100008.42
2023-01-13T00:29:14.461Z,100005.33
2023-01-13T00:31:42.792Z,100001.44
2023-01-13T00:34:11.247Z,100003.75
2023-01-13T00:36:39.854Z,99999.20
2023-01-13T00:39:08.468Z,99998.67
2023-01-13T00:41:55.559Z,99993.27
2023-01-13T00:44:23.642Z,99996.42
2023-01-13T00:46:53.535Z,99995.52
2023-01-13T00:49:23.416Z,99996.92
2023-01-13T00:51:53.205Z,99992.56
2023-01-13T00:54:23.180Z,99994.37
2023-01-13T00:56:53.056Z,99997.96
2023-01-13T00:59:22.884Z,99996.77
2023-01-13T01:01:52.850Z,99993.11
2023-01-13T01:04:22.850Z,99994.49
2023-01-13T01:06:52.702Z,99997.16
2023-01-13T01:09:22.509Z,99998.71
2023-01-13T01:11:52.860Z,99997.11
2023-01-13T01:14:22.527Z,99998.73
2023-01-13T01:16:52.304Z,100001.89
2023-01-13T01:19:22.275Z,100006.06
2023-01-13T01:21:52.279Z,100000.84
2023-01-13T01:24:22.225Z,100006.19
2023-01-13T01:26:51.910Z,100001.36
2023-01-13T01:29:21.555Z,100003.94
2023-01-13T01:31:51.354Z,100001.48
2023-01-13T01:34:21.135Z,99995.96
2023-01-13T01:36:53.491Z,99998.45
2023-01-13T01:39:23.353Z,99995.50
2023-01-13T01:42:14.519Z,99993.45
2023-01-13T01:44:44.178Z,99990.48
2023-01-13T01:47:18.090Z,99989.60
2023-01-13T01:49:51.005Z,99987.53
2023-01-13T01:52:35.537Z,99986.95
2023-01-13T01:55:18.003Z,99985.22
2023-01-13T01:58:12.087Z,99986.27
2023-01-13T02:00:42.992Z,99982.43
2023-01-13T02:03:11.710Z,99975.48
2023-01-13T02:05:39.303Z,99971.11
2023-01-13T02:08:11.954Z,99971.01
2023-01-13T02:10:47.350Z,99975.54
2023-01-13T02:13:17.886Z,99975.86
2023-01-13T02:16:19.659Z,99982.52
2023-01-13T02:19:14.681Z,99968.86
2023-01-13T02:22:15.736Z,99972.42
2023-01-13T02:25:32.297Z,99965.85
2023-01-13T02:29:08.892Z,99960.23
2023-01-13T02:31:43.522Z,99960.73
2023-01-13T02:34:26.300Z,99955.95
2023-01-13T02:37:28.681Z,99952.38
2023-01-13T02:40:29.468Z,99957.20
2023-01-13T02:43:26.698Z,99958.64
2023-01-13T02:46:09.546Z,99957.64
2023-01-13T02:48:43.235Z,99956.50
2023-01-13T02:51:19.762Z,99954.05
2023-01-13T02:54:00.258Z,99956.16
2023-01-13T02:56:37.207Z,99952.65
2023-01-13T02:59:09.569Z,99951.80
2023-01-13T03:01:41.367Z,99950.02
2023-01-13T03:04:38.976Z,99946.35
2023-01-13T03:07:20.625Z,99952.14
2023-01-13T03:10:11.668Z,99950.23
2023-01-13T03:13:12.383Z,99951.74
2023-01-13T03:16:19.061Z,99952.41
2023-01-13T03:19:29.725Z,99953.13
2023-01-13T03:22:39.101Z,99946.54
2023-01-13T03:25:40.457Z,99933.13
2023-01-13T03:28:44.616Z,99930.75
2023-01-13T03:31:25.757Z,99941.02
2023-01-13T03:34:19.907Z,99941.70
2023-01-13T03:36:55.935Z,99940.30
2023-01-13T03:39:34.523Z,99940.86
2023-01-13T03:42:17.235Z,99938.26
2023-01-13T03:45:14.810Z,99936.86
2023-01-13T03:47:56.948Z,99939.81
2023-01-13T03:50:35.439Z,99942.10
2023-01-13T03:53:13.965Z,99940.67
2023-01-13T03:55:50.509Z,99944.50
2023-01-13T03:58:27.485Z,99944.27
2023-01-13T04:01:17.150Z,99943.37
2023-01-13T04:04:02.114Z,99936.98
2023-01-13T04:06:48.071Z,99933.59
2023-01-13T04:09:52.896Z,99937.14
2023-01-13T04:13:00.875Z,99925.95
2023-01-13T04:15:34.021Z,99926.69
2023-01-13T04:18:14.085Z,99927.83
2023-01-13T04:20:47.839Z,99929.83
2023-01-13T04:23:19.872Z,99935.77
2023-01-13T04:25:51.633Z,99934.86
2023-01-13T04:28:22.602Z,99934.73
2023-01-13T04:30:53.282Z,99929.58
2023-01-13T04:33:23.234Z,99935.39
2023-01-13T04:35:53.001Z,99941.95
2023-01-13T04:38:22.943Z,99942.02
2023-01-13T04:40:52.803Z,99937.27
2023-01-13T04:43:23.506Z,99938.48
2023-01-13T04:45:53.189Z,99936.91
2023-01-13T04:48:25.185Z,99937.63
2023-01-13T04:50:58.122Z,99943.77
2023-01-13T04:53:27.873Z,99950.80
2023-01-13T04:55:57.682Z,99948.57
2023-01-13T04:58:27.464Z,99956.58
2023-01-13T05:01:00.245Z,99959.98
2023-01-13T05:03:30.070Z,99955.14
2023-01-13T05:05:59.927Z,99955.69
2023-01-13T05:08:32.772Z,99952.20
2023-01-13T05:11:22.530Z,99953.80
2023-01-13T05:14:11.508Z,99952.70
2023-01-13T05:16:59.946Z,99951.92
2023-01-13T05:19:40.821Z,99951.76
2023-01-13T05:22:27.478Z,99951.17
2023-01-13T05:25:15.909Z,99952.95
2023-01-13T05:27:45.799Z,99953.54
2023-01-13T05:30:17.761Z,99953.50
2023-01-13T05:32:47.560Z,99945.75
2023-01-13T05:35:17.703Z,99951.08
2023-01-13T05:37:48.566Z,99951.98
2023-01-13T05:40:38.102Z,99958.13
2023-01-13T05:43:20.035Z,99956.10
2023-01-13T05:46:03.245Z,99958.39
2023-01-13T05:48:39.862Z,99954.95
2023-01-13T05:51:11.151Z,99960.15
2023-01-13T05:53:43.240Z,99963.05
2023-01-13T05:56:12.835Z,99960.31
2023-01-13T05:58:40.551Z,99964.16
2023-01-13T06:01:11.211Z,99964.20
2023-01-13T06:03:40.828Z,99961.06
2023-01-13T06:06:10.667Z,99964.08
2023-01-13T06:08:40.395Z,99965.63
2023-01-13T06:11:10.270Z,99963.55
2023-01-13T06:13:40.037Z,99966.70
2023-01-13T06:16:10.750Z,99955.51
2023-01-13T06:18:40.110Z,99963.21
2023-01-13T06:21:09.714Z,99963.95
2023-01-13T06:23:39.537Z,99973.77
2023-01-13T06:26:21.820Z,99989.05
2023-01-13T06:28:51.783Z,99989.94
2023-01-13T06:31:22.104Z,99990.71
2023-01-13T06:33:59.713Z,99988.50
2023-01-13T06:36:40.529Z,99980.55
2023-01-13T06:39:16.219Z,99983.64
2023-01-13T06:42:12.768Z,99988.34
2023-01-13T06:44:45.376Z,99988.30
2023-01-13T06:47:15.221Z,99989.48
2023-01-13T06:49:45.080Z,99970.50
2023-01-13T06:52:15.118Z,99960.13
2023-01-13T06:54:44.996Z,99966.63
2023-01-13T06:57:14.674Z,99975.10
2023-01-13T06:59:44.507Z,99975.38
2023-01-13T07:02:14.406Z,99978.77
2023-01-13T07:04:45.216Z,99981.56
2023-01-13T07:07:14.343Z,99976.80
2023-01-13T07:09:41.068Z,99961.15
2023-01-13T07:12:14.232Z,99972.85
2023-01-13T07:15:02.643Z,99982.09
2023-01-13T07:17:32.500Z,99980.40
2023-01-13T07:20:02.447Z,99973.89
2023-01-13T07:22:32.166Z,99972.77
2023-01-13T07:25:02.087Z,99981.42
2023-01-13T07:27:31.889Z,99979.68
2023-01-13T07:30:02.494Z,99971.65
2023-01-13T07:32:34.044Z,99958.61
2023-01-13T07:35:07.353Z,99950.85
2023-01-13T07:37:39.506Z,99955.39
2023-01-13T07:40:10.610Z,99976.22
2023-01-13T07:42:58.968Z,99980.14
2023-01-13T07:45:28.733Z,99977.39
2023-01-13T07:47:58.613Z,99985.70
2023-01-13T07:50:26.990Z,99995.09
2023-01-13T07:52:59.117Z,99992.92
2023-01-13T07:55:26.891Z,99992.61
2023-01-13T07:57:55.438Z,99983.64
2023-01-13T08:00:24.243Z,99984.11
2023-01-13T08:02:52.273Z,99991.56
2023-01-13T08:05:20.525Z,100010.09
2023-01-13T08:07:48.946Z,100023.72
2023-01-13T08:10:17.515Z,100038.08
2023-01-13T08:13:04.325Z,100035.30
2023-01-13T08:15:34.775Z,100038.31
2023-01-13T08:18:04.538Z,100031.00
2023-01-13T08:20:34.740Z,100030.77
2023-01-13T08:23:07.129Z,100036.70
2023-01-13T08:25:37.224Z,100043.04
2023-01-13T08:28:07.120Z,100050.88
2023-01-13T08:30:36.897Z,100059.81
2023-01-13T08:33:10.249Z,100056.66
2023-01-13T08:35:42.142Z,100048.45
2023-01-13T08:38:11.925Z,100033.64
2023-01-13T08:40:41.720Z,100021.80
2023-01-13T08:43:11.535Z,100019.39
2023-01-13T08:45:41.443Z,100026.60
2023-01-13T08:48:11.257Z,100032.77
2023-01-13T08:50:41.101Z,100040.51
2023-01-13T08:53:10.873Z,100044.73
2023-01-13T08:55:40.909Z,100061.09
2023-01-13T08:58:15.864Z,100064.41
2023-01-13T09:00:45.954Z,100058.80
2023-01-13T09:03:15.805Z,100072.08
2023-01-13T09:05:45.644Z,100077.16
2023-01-13T09:08:15.512Z,100061.90
2023-01-13T09:10:45.368Z,100027.19
2023-01-13T09:13:15.771Z,99972.20
2023-01-13T09:15:46.191Z,99961.65
2023-01-13T09:18:16.532Z,99976.09
2023-01-13T09:20:44.655Z,99960.96
2023-01-13T09:23:13.023Z,100003.33
2023-01-13T09:25:41.298Z,100030.45
2023-01-13T09:28:09.782Z,100031.98
2023-01-13T09:30:38.221Z,100028.45
2023-01-13T09:33:25.297Z,100040.89
2023-01-13T09:35:59.272Z,100049.10
2023-01-13T09:38:29.052Z,100036.54
2023-01-13T09:40:58.864Z,100028.98
2023-01-13T09:43:55.469Z,100021.06
2023-01-13T09:46:44.282Z,100011.77
2023-01-13T09:49:34.593Z,100027.00
2023-01-13T09:52:27.032Z,100040.79
2023-01-13T09:55:23.511Z,100041.25
2023-01-13T09:57:53.068Z,100049.25
2023-01-13T10:00:29.082Z,100053.05
2023-01-13T10:03:25.088Z,100058.03
2023-01-13T10:06:06.842Z,100065.05
2023-01-13T10:08:43.339Z,100070.59
2023-01-13T10:11:48.187Z,100075.20
2023-01-13T10:14:52.798Z,100066.77
2023-01-13T10:17:48.139Z,100066.09
2023-01-13T10:20:49.855Z,100071.30
2023-01-13T10:23:57.890Z,100068.27
2023-01-13T10:27:06.099Z,100068.73
2023-01-13T10:29:36.984Z,100056.18
2023-01-13T10:32:06.828Z,100063.52
2023-01-13T10:34:57.384Z,100054.77
2023-01-13T10:37:28.771Z,100056.73
2023-01-13T10:40:03.113Z,100058.64
2023-01-13T10:42:32.829Z,100059.91
2023-01-13T10:45:03.680Z,100061.69
2023-01-13T10:47:36.899Z,100058.98
2023-01-13T10:50:09.278Z,100056.82
2023-01-13T10:52:55.488Z,100058.31
2023-01-13T10:55:33.152Z,100058.83
2023-01-13T10:58:19.960Z,100055.97
2023-01-13T11:00:58.553Z,100058.81
2023-01-13T11:03:41.302Z,100055.00
2023-01-13T11:06:25.673Z,100054.08
2023-01-13T11:08:58.502Z,100054.53
2023-01-13T11:11:42.491Z,100054.20
2023-01-13T11:14:42.698Z,100059.60
2023-01-13T11:17:25.837Z,100063.75
2023-01-13T11:20:09.009Z,100066.80
2023-01-13T11:22:52.921Z,100065.22
2023-01-13T11:25:41.345Z,100067.70
2023-01-13T11:28:46.279Z,100059.55
2023-01-13T11:31:30.048Z,100059.69
2023-01-13T11:34:07.617Z,100058.66
2023-01-13T11:36:52.388Z,100059.94
2023-01-13T11:40:15.079Z,100057.52
2023-01-13T11:42:59.952Z,100059.23
2023-01-13T11:45:45.595Z,100062.23
2023-01-13T11:48:25.237Z,100065.17
2023-01-13T11:51:05.515Z,100061.83
2023-01-13T11:53:59.540Z,100060.06
2023-01-13T11:56:55.869Z,100062.02
2023-01-13T12:00:13.153Z,100063.45
2023-01-13T12:03:04.727Z,100067.13
2023-01-13T12:05:44.597Z,100070.13
2023-01-13T12:09:11.921Z,100072.30
2023-01-13T12:12:15.425Z,100069.75
2023-01-13T12:14:51.235Z,100072.30
2023-01-13T12:17:44.185Z,100062.45
2023-01-13T12:20:39.656Z,100069.46
2023-01-13T12:23:37.279Z,100067.13
2023-01-13T12:26:14.072Z,100064.47
2023-01-13T12:29:05.356Z,100063.77
2023-01-13T12:31:40.592Z,100074.11
2023-01-13T12:34:40.964Z,100075.17
2023-01-13T12:37:16.952Z,100079.19
2023-01-13T12:40:14.898Z,100080.80
2023-01-13T12:43:35.103Z,100076.14
2023-01-13T12:46:22.904Z,100077.19
2023-01-13T12:48:56.951Z,100083.75
2023-01-13T12:51:57.052Z,100083.43
2023-01-13T12:54:30.681Z,100091.90
2023-01-13T12:57:01.222Z,100088.59
2023-01-13T12:59:30.825Z,100088.76
2023-01-13T13:02:12.994Z,100091.90
2023-01-13T13:04:49.145Z,100091.00
2023-01-13T13:07:41.563Z,100093.11
2023-01-13T13:10:38.758Z,100090.41
2023-01-13T13:13:42.197Z,100099.15
2023-01-13T13:16:27.533Z,100096.32
2023-01-13T13:19:19.412Z,100094.05
2023-01-13T13:22:18.620Z,100097.08
2023-01-13T13:24:51.412Z,100099.43
2023-01-13T13:27:45.983Z,100097.09
2023-01-13T13:30:38.013Z,100100.23
2023-01-13T13:34:04.831Z,100098.80
2023-01-13T13:37:16.157Z,100099.63
2023-01-13T13:40:05.029Z,100099.50
2023-01-13T13:43:16.277Z,100105.14
2023-01-13T13:46:11.492Z,100101.56
2023-01-13T13:48:55.228Z,100104.74
2023-01-13T13:51:42.801Z,100107.17
2023-01-13T13:54:18.552Z,100109.23
2023-01-13T13:56:51.456Z,100111.52
2023-01-13T13:59:26.063Z,100107.40
2023-01-13T14:02:03.781Z,100107.70
2023-01-13T14:04:37.856Z,100107.49
2023-01-13T14:07:22.086Z,100106.89
2023-01-13T14:09:54.755Z,100110.73
2023-01-13T14:12:27.172Z,100108.10
2023-01-13T14:14:57.485Z,100108.46
2023-01-13T14:17:30.447Z,100116.77
2023-01-13T14:20:10.164Z,100118.02
2023-01-13T14:22:40.618Z,100117.98
2023-01-13T14:25:34.695Z,100120.47
2023-01-13T14:28:13.629Z,100120.35
2023-01-13T14:30:44.046Z,100125.48
2023-01-13T14:33:23.368Z,100127.70
2023-01-13T14:36:07.564Z,100130.92
2023-01-13T14:38:38.153Z,100129.71
2023-01-13T14:41:30.696Z,100130.45
2023-01-13T14:44:27.951Z,100132.61
2023-01-13T14:47:04.420Z,100133.23
2023-01-13T14:49:42.311Z,100129.31
2023-01-13T14:52:25.693Z,100137.77
2023-01-13T14:55:08.718Z,100139.71
2023-01-13T14:57:41.720Z,100142.21
2023-01-13T15:00:14.472Z,100143.27
2023-01-13T15:02:57.418Z,100138.65
2023-01-13T15:05:26.565Z,100145.82
2023-01-13T15:08:02.420Z,100146.19
2023-01-13T15:10:46.877Z,100144.39
2023-01-13T15:13:36.567Z,100144.49
2023-01-13T15:16:21.840Z,100146.15
2023-01-13T15:18:52.466Z,100149.31
2023-01-13T15:21:23.316Z,100155.81
2023-01-13T15:23:53.130Z,100152.84
2023-01-13T15:26:30.216Z,100151.64
2023-01-13T15:29:01.167Z,100154.02
2023-01-13T15:31:28.896Z,100149.09
2023-01-13T15:33:58.799Z,100150.82
2023-01-13T15:36:31.621Z,100150.90
2023-01-13T15:39:01.758Z,100155.95
2023-01-13T15:41:50.103Z,100154.56
2023-01-13T15:44:38.700Z,100154.86
2023-01-13T15:47:10.435Z,100163.23
2023-01-13T15:49:46.277Z,100162.95
2023-01-13T15:52:21.546Z,100165.84
2023-01-13T15:54:54.294Z,100168.84
2023-01-13T15:57:30.561Z,100169.02
2023-01-13T16:00:16.546Z,100171.35
2023-01-13T16:02:46.991Z,100176.56
2023-01-13T16:05:17.475Z,100180.41
2023-01-13T16:07:47.521Z,100186.60
2023-01-13T16:10:25.920Z,100190.63
2023-01-13T16:12:58.391Z,100187.55
2023-01-13T16:15:28.181Z,100195.30
2023-01-13T16:18:03.378Z,100197.17
2023-01-13T16:20:33.217Z,100198.35
2023-01-13T16:23:02.948Z,100201.11
2023-01-13T16:25:32.880Z,100202.52
2023-01-13T16:28:02.813Z,100206.11
2023-01-13T16:30:37.247Z,100207.48
2023-01-13T16:33:06.983Z,100214.19
2023-01-13T16:35:36.811Z,100219.11
2023-01-13T16:38:26.494Z,100225.38
2023-01-13T16:40:57.155Z,100231.28
2023-01-13T16:43:27.826Z,100232.23
2023-01-13T16:45:57.689Z,100242.10
2023-01-13T16:48:27.479Z,100245.19
2023-01-13T16:50:58.079Z,100248.30
2023-01-13T16:53:28.174Z,100247.42
2023-01-13T16:55:57.913Z,100243.55
2023-01-13T16:58:27.679Z,100240.27
2023-01-13T17:00:57.451Z,100248.19
2023-01-13T17:03:27.306Z,100250.09
2023-01-13T17:05:57.163Z,100258.17
2023-01-13T17:08:26.971Z,100260.48
2023-01-13T17:10:56.736Z,100261.83
2023-01-13T17:13:26.942Z,100265.09
2023-01-13T17:15:56.684Z,100268.95
2023-01-13T17:18:26.432Z,100275.50
2023-01-13T17:20:58.101Z,100275.56
2023-01-13T17:23:29.789Z,100282.36
2023-01-13T17:25:59.486Z,100287.95
2023-01-13T17:28:29.205Z,100288.23
2023-01-13T17:30:58.941Z,100290.05
2023-01-13T17:33:36.957Z,100284.93
2023-01-13T17:36:07.343Z,100290.52
2023-01-13T17:38:35.161Z,100294.16
2023-01-13T17:41:05.106Z,100294.06
2023-01-13T17:43:32.655Z,100305.99
2023-01-13T17:46:00.765Z,100309.64
2023-01-13T17:48:28.850Z,100306.33
2023-01-13T17:50:58.127Z,100317.95
2023-01-13T17:53:26.150Z,100316.42
2023-01-13T17:55:55.692Z,100320.07
2023-01-13T17:58:23.288Z,100315.90
2023-01-13T18:00:51.269Z,100318.23
2023-01-13T18:03:19.685Z,100321.10
2023-01-13T18:05:48.172Z,100319.66
2023-01-13T18:08:17.072Z,100320.31
2023-01-13T18:10:45.004Z,100322.49
2023-01-13T18:13:13.438Z,100322.88
2023-01-13T18:15:41.868Z,100333.17
2023-01-13T18:18:08.789Z,100337.02
2023-01-13T18:20:54.876Z,100338.52
2023-01-13T18:23:43.112Z,100343.98
2023-01-13T18:26:39.114Z,100342.39
2023-01-13T18:29:08.491Z,100349.79
2023-01-13T18:31:35.936Z,100354.42
2023-01-13T18:34:05.850Z,100347.16
2023-01-13T18:36:36.548Z,100346.63
2023-01-13T18:39:06.448Z,100348.52
2023-01-13T18:41:55.046Z,100349.78
2023-01-13T18:44:25.221Z,100354.44
2023-01-13T18:46:55.191Z,100356.54
2023-01-13T18:49:24.999Z,100359.15
2023-01-13T18:51:55.008Z,100359.84
2023-01-13T18:54:25.244Z,100364.66
2023-01-13T18:56:56.304Z,100365.46
2023-01-13T18:59:26.302Z,100362.70
2023-01-13T19:01:55.921Z,100362.64
2023-01-13T19:04:25.387Z,100370.34
2023-01-13T19:07:00.314Z,100376.40
2023-01-13T19:09:30.870Z,100382.84
2023-01-13T19:12:01.100Z,100382.59
2023-01-13T19:14:42.077Z,100391.41
2023-01-13T19:17:15.792Z,100394.09
2023-01-13T19:19:55.105Z,100395.04
2023-01-13T19:22:32.738Z,100401.65
2023-01-13T19:25:03.094Z,100404.20
2023-01-13T19:27:31.711Z,100403.34
2023-01-13T19:30:03.484Z,100403.58
2023-01-13T19:32:33.758Z,100407.75
2023-01-13T19:35:01.858Z,100412.62
2023-01-13T19:37:33.809Z,100420.11
2023-01-13T19:40:09.127Z,100424.88
2023-01-13T19:42:56.789Z,100423.70
2023-01-13T19:45:26.583Z,100424.98
2023-01-13T19:48:01.748Z,100429.20
2023-01-13T19:50:34.977Z,100431.27
2023-01-13T19:53:01.805Z,100431.48
2023-01-13T19:55:31.556Z,100432.64
2023-01-13T19:58:00.857Z,100439.81
2023-01-13T20:00:30.742Z,100441.37
2023-01-13T20:03:03.326Z,100439.58
2023-01-13T20:05:30.756Z,100443.48
2023-01-13T20:07:58.963Z,100449.89
2023-01-13T20:10:30.187Z,100453.82
2023-01-13T20:12:59.626Z,100458.08
2023-01-13T20:15:30.201Z,100454.84
2023-01-13T20:18:00.855Z,100458.72
2023-01-13T20:20:31.006Z,100459.94
2023-01-13T20:23:00.742Z,100462.46
2023-01-13T20:25:30.810Z,100468.77
2023-01-13T20:28:02.191Z,100470.14
2023-01-13T20:30:31.431Z,100468.31
2023-01-13T20:33:01.164Z,100468.45
2023-01-13T20:35:29.693Z,100469.30
2023-01-13T20:37:58.194Z,100478.61
2023-01-13T20:40:26.467Z,100483.13
2023-01-13T20:42:55.040Z,100476.67
2023-01-13T20:45:23.729Z,100483.38
2023-01-13T20:47:53.436Z,100486.11
2023-01-13T20:50:23.289Z,100487.12
2023-01-13T20:52:52.633Z,100489.83
2023-01-13T20:55:19.988Z,100489.16
2023-01-13T20:57:49.879Z,100493.78
2023-01-13T21:00:18.107Z,100491.50
2023-01-13T21:02:45.339Z,100491.00
2023-01-13T21:05:14.275Z,100489.98
2023-01-13T21:07:42.259Z,100482.61
2023-01-13T21:10:11.521Z,100486.58
2023-01-13T21:12:57.430Z,100487.67
2023-01-13T21:15:27.850Z,100496.45
2023-01-13T21:18:16.335Z,100506.61
2023-01-13T21:20:45.936Z,100507.90
2023-01-13T21:23:15.856Z,100513.52
2023-01-13T21:25:45.605Z,100512.77
2023-01-13T21:28:18.148Z,100511.23
2023-01-13T21:30:47.930Z,100516.34
2023-01-13T21:33:17.883Z,100519.27
2023-01-13T21:35:47.701Z,100526.06
2023-01-13T21:38:17.495Z,100526.32
2023-01-13T21:40:59.987Z,100528.50
2023-01-13T21:43:48.197Z,100535.30
2023-01-13T21:46:38.175Z,100532.80
2023-01-13T21:49:08.750Z,100538.02
2023-01-13T21:51:38.502Z,100535.20
2023-01-13T21:54:08.299Z,100536.17
2023-01-13T21:56:38.082Z,100529.15
2023-01-13T21:59:07.835Z,100531.28
2023-01-13T22:01:37.722Z,100532.67
2023-01-13T22:04:27.007Z,100536.74
2023-01-13T22:06:55.582Z,100542.96
2023-01-13T22:09:23.898Z,100544.60
2023-01-13T22:11:53.703Z,100541.05
2023-01-13T22:14:24.835Z,100543.94
2023-01-13T22:16:56.825Z,100554.33
2023-01-13T22:19:26.466Z,100557.23
2023-01-13T22:21:57.330Z,100551.23
2023-01-13T22:24:30.097Z,100554.73
2023-01-13T22:26:59.781Z,100559.61
2023-01-13T22:29:29.653Z,100560.27
2023-01-13T22:31:59.899Z,100564.08
2023-01-13T22:34:29.711Z,100570.54
2023-01-13T22:37:00.078Z,100567.66
2023-01-13T22:39:30.416Z,100570.19
2023-01-13T22:42:00.682Z,100571.73
2023-01-13T22:44:31.002Z,100572.78
2023-01-13T22:47:00.630Z,100574.20
2023-01-13T22:49:30.466Z,100575.69
2023-01-13T22:52:00.226Z,100582.19
2023-01-13T22:54:30.137Z,100586.75
2023-01-13T22:56:59.828Z,100593.60
2023-01-13T22:59:26.962Z,100591.14
2023-01-13T23:01:54.144Z,100600.34
2023-01-13T23:04:24.057Z,100608.21
2023-01-13T23:06:53.979Z,100609.05
2023-01-13T23:09:23.867Z,100603.51
2023-01-13T23:11:53.810Z,100608.79
2023-01-13T23:14:23.697Z,100613.47
2023-01-13T23:16:53.749Z,100613.70
2023-01-13T23:19:23.543Z,100609.88
2023-01-13T23:21:53.316Z,100612.29
2023-01-13T23:24:25.953Z,100616.45
2023-01-13T23:26:55.447Z,100606.73
2023-01-13T23:29:25.140Z,100608.58
2023-01-13T23:31:54.969Z,100612.36
2023-01-13T23:34:24.988Z,100615.56
2023-01-13T23:36:54.808Z,100621.67
2023-01-13T23:39:24.780Z,100619.92
2023-01-13T23:41:54.936Z,100620.55
2023-01-13T23:44:24.863Z,100623.83
2023-01-13T23:46:54.871Z,100631.41
2023-01-13T23:49:24.947Z,100636.88
2023-01-13T23:51:54.795Z,100636.46
2023-01-13T23:54:24.646Z,100642.41
2023-01-13T23:56:54.464Z,100652.48
2023-01-13T23:59:24.182Z,100655.18
